createdAt,value
2018-11-04T00:00:04.343Z,6.26
2018-11-04T00:02:33.022Z,6.28
2018-11-04T00:05:01.641Z,6.29
2018-11-04T00:07:30.387Z,6.29
2018-11-04T00:09:59.035Z,6.30
2018-11-04T00:12:27.632Z,6.28
2018-11-04T00:14:56.303Z,6.29
2018-11-04T00:17:25.098Z,6.28
2018-11-04T00:19:53.947Z,6.26
2018-11-04T00:22:22.863Z,6.25
2018-11-04T00:24:51.509Z,6.21
2018-11-04T00:27:20.337Z,6.22
2018-11-04T00:29:49.122Z,6.24
2018-11-04T00:32:17.883Z,6.23
2018-11-04T00:34:46.565Z,6.22
2018-11-04T00:37:15.264Z,6.21
2018-11-04T00:39:43.890Z,6.17
2018-11-04T00:42:12.523Z,6.08
2018-11-04T00:44:41.207Z,6.03
2018-11-04T00:47:09.879Z,6.05
2018-11-04T00:49:38.412Z,6.01
2018-11-04T00:52:07.161Z,6.02
2018-11-04T00:54:35.919Z,6.05
2018-11-04T00:57:04.854Z,6.07
2018-11-04T00:59:33.615Z,6.09
2018-11-04T01:02:02.365Z,6.12
2018-11-04T01:04:31.017Z,6.09
2018-11-04T01:06:59.613Z,6.11
2018-11-04T01:09:28.324Z,6.11
2018-11-04T01:11:57.068Z,6.09
2018-11-04T01:14:25.880Z,6.12
2018-11-04T01:16:54.434Z,6.11
2018-11-04T01:19:23.289Z,6.11
2018-11-04T01:21:51.972Z,6.08
2018-11-04T01:24:20.689Z,6.12
2018-11-04T01:26:49.341Z,6.09
2018-11-04T01:29:18.075Z,5.99
2018-11-04T01:31:46.622Z,5.96
2018-11-04T01:34:15.319Z,5.97
2018-11-04T01:36:44.120Z,5.93
2018-11-04T01:39:12.781Z,5.94
2018-11-04T01:41:41.694Z,5.95
2018-11-04T01:44:11.496Z,5.94
2018-11-04T01:46:41.548Z,5.91
2018-11-04T01:49:10.375Z,5.87
2018-11-04T01:51:39.389Z,5.87
2018-11-04T01:54:08.251Z,5.74
2018-11-04T01:56:36.986Z,5.69
2018-11-04T01:59:06.175Z,5.70
2018-11-04T02:01:34.784Z,5.61
2018-11-04T02:04:03.610Z,5.65
2018-11-04T02:06:32.356Z,5.57
2018-11-04T02:09:02.149Z,5.58
2018-11-04T02:11:30.806Z,5.62
2018-11-04T02:13:59.543Z,5.69
2018-11-04T02:16:28.289Z,5.68
2018-11-04T02:18:57.077Z,5.72
2018-11-04T02:21:25.657Z,5.74
2018-11-04T02:23:54.388Z,5.78
2018-11-04T02:26:23.251Z,5.80
2018-11-04T02:28:51.939Z,5.81
2018-11-04T02:31:20.601Z,5.79
2018-11-04T02:33:49.298Z,5.79
2018-11-04T02:36:17.942Z,5.84
2018-11-04T02:38:46.586Z,5.84
2018-11-04T02:41:15.236Z,5.84
2018-11-04T02:43:43.898Z,5.86
2018-11-04T02:46:12.868Z,5.91
2018-11-04T02:48:41.537Z,5.96
2018-11-04T02:51:10.386Z,5.97
2018-11-04T02:53:39.107Z,5.92
2018-11-04T02:56:07.852Z,5.93
2018-11-04T02:58:36.490Z,5.89
2018-11-04T03:01:05.122Z,5.92
2018-11-04T03:03:33.908Z,5.90
2018-11-04T03:06:02.880Z,5.85
2018-11-04T03:08:32.621Z,5.84
2018-11-04T03:11:02.960Z,5.90
2018-11-04T03:13:31.700Z,5.97
2018-11-04T03:16:00.305Z,6.03
2018-11-04T03:18:28.922Z,6.07
2018-11-04T03:20:57.454Z,6.08
2018-11-04T03:23:26.017Z,6.10
2018-11-04T03:25:54.584Z,6.09
2018-11-04T03:28:23.376Z,6.04
2018-11-04T03:30:52.082Z,6.06
2018-11-04T03:33:20.669Z,6.07
2018-11-04T03:35:49.304Z,6.09
2018-11-04T03:38:17.950Z,6.10
2018-11-04T03:40:46.471Z,6.16
2018-11-04T03:43:15.054Z,6.17
2018-11-04T03:45:43.990Z,6.21
2018-11-04T03:48:12.651Z,6.21
2018-11-04T03:50:41.465Z,6.25
2018-11-04T03:53:10.163Z,6.27
2018-11-04T03:55:38.924Z,6.33
2018-11-04T03:58:07.567Z,6.36
2018-11-04T04:00:36.841Z,6.42
2018-11-04T04:03:05.802Z,6.47
2018-11-04T04:05:34.637Z,6.52
2018-11-04T04:08:03.596Z,6.55
2018-11-04T04:10:32.433Z,6.59
2018-11-04T04:13:01.182Z,6.62
2018-11-04T04:15:29.951Z,6.67
2018-11-04T04:17:58.676Z,6.70
2018-11-04T04:20:27.348Z,6.75
2018-11-04T04:22:55.980Z,6.78
2018-11-04T04:25:24.847Z,6.80
2018-11-04T04:27:53.718Z,6.79
2018-11-04T04:30:22.348Z,6.84
2018-11-04T04:32:50.987Z,6.86
2018-11-04T04:35:19.598Z,6.87
2018-11-04T04:37:48.350Z,6.90
2018-11-04T04:40:17.379Z,6.94
2018-11-04T04:42:46.141Z,7.01
2018-11-04T04:45:14.833Z,6.94
2018-11-04T04:47:43.608Z,6.79
2018-11-04T04:50:12.341Z,6.79
2018-11-04T04:52:41.004Z,6.86
2018-11-04T04:55:09.589Z,6.93
2018-11-04T04:57:38.388Z,6.92
2018-11-04T05:00:07.973Z,6.97
2018-11-04T05:02:36.616Z,6.91
2018-11-04T05:05:05.436Z,6.94
2018-11-04T05:07:34.014Z,6.98
2018-11-04T05:10:02.553Z,6.99
2018-11-04T05:12:31.207Z,6.97
2018-11-04T05:14:59.728Z,6.98
2018-11-04T05:17:28.489Z,7.02
2018-11-04T05:19:57.063Z,7.01
2018-11-04T05:22:25.622Z,6.98
2018-11-04T05:24:54.386Z,6.99
2018-11-04T05:27:22.997Z,7.05
2018-11-04T05:29:51.712Z,7.13
2018-11-04T05:32:20.416Z,7.17
2018-11-04T05:34:49.154Z,7.14
2018-11-04T05:37:17.672Z,7.09
2018-11-04T05:39:46.390Z,7.08
2018-11-04T05:42:15.111Z,7.13
2018-11-04T05:44:43.674Z,7.17
2018-11-04T05:47:12.305Z,7.23
2018-11-04T05:49:40.962Z,7.26
2018-11-04T05:52:09.462Z,7.33
2018-11-04T05:54:38.165Z,7.32
2018-11-04T05:57:06.883Z,7.36
2018-11-04T05:59:35.558Z,7.34
2018-11-04T06:02:04.349Z,7.34
2018-11-04T06:04:33.715Z,7.37
2018-11-04T06:07:03.555Z,7.37
2018-11-04T06:09:32.246Z,7.41
2018-11-04T06:12:00.923Z,7.42
2018-11-04T06:14:29.550Z,7.39
2018-11-04T06:16:58.211Z,7.41
2018-11-04T06:19:26.888Z,7.40
2018-11-04T06:21:55.462Z,7.42
2018-11-04T06:24:24.234Z,7.43
2018-11-04T06:26:52.894Z,7.45
2018-11-04T06:29:21.902Z,7.41
2018-11-04T06:31:50.600Z,7.41
2018-11-04T06:34:19.308Z,7.42
2018-11-04T06:36:47.850Z,7.46
2018-11-04T06:39:16.534Z,7.49
2018-11-04T06:41:45.411Z,7.48
2018-11-04T06:44:14.228Z,7.51
2018-11-04T06:46:42.819Z,7.57
2018-11-04T06:49:11.570Z,7.59
2018-11-04T06:51:40.261Z,7.56
2018-11-04T06:54:08.970Z,7.57
2018-11-04T06:56:37.705Z,7.62
2018-11-04T06:59:06.555Z,7.67
2018-11-04T07:01:35.339Z,7.72
2018-11-04T07:04:16.049Z,7.74
2018-11-04T07:06:44.776Z,7.68
2018-11-04T07:09:14.235Z,7.67
2018-11-04T07:11:42.856Z,7.70
2018-11-04T07:14:11.548Z,7.75
2018-11-04T07:16:40.252Z,7.70
2018-11-04T07:19:08.923Z,7.69
2018-11-04T07:21:37.721Z,7.67
2018-11-04T07:24:07.143Z,7.66
2018-11-04T07:26:39.755Z,7.68
2018-11-04T07:29:09.272Z,7.73
2018-11-04T07:31:37.983Z,7.81
2018-11-04T07:34:07.275Z,7.81
2018-11-04T07:36:36.015Z,7.82
2018-11-04T07:39:07.669Z,7.88
2018-11-04T07:41:36.231Z,7.86
2018-11-04T07:44:05.175Z,7.90
2018-11-04T07:46:33.771Z,7.91
2018-11-04T07:49:02.638Z,7.87
2018-11-04T07:51:31.436Z,7.82
2018-11-04T07:54:00.221Z,7.84
2018-11-04T07:56:29.234Z,7.84
2018-11-04T07:58:58.024Z,7.92
2018-11-04T08:01:26.624Z,7.92
2018-11-04T08:03:55.447Z,7.91
2018-11-04T08:06:24.058Z,8.01
2018-11-04T08:08:52.697Z,8.02
2018-11-04T08:11:21.271Z,8.09
2018-11-04T08:13:50.053Z,8.19
2018-11-04T08:16:18.747Z,8.26
2018-11-04T08:18:47.396Z,8.33
2018-11-04T08:21:16.113Z,8.39
2018-11-04T08:23:44.881Z,8.41
2018-11-04T08:26:13.703Z,8.46
2018-11-04T08:28:42.364Z,8.49
2018-11-04T08:31:11.053Z,8.53
2018-11-04T08:33:39.858Z,8.53
2018-11-04T08:36:08.460Z,8.59
2018-11-04T08:38:37.233Z,8.63
2018-11-04T08:41:05.893Z,8.67
2018-11-04T08:43:34.471Z,8.74
2018-11-04T08:46:04.334Z,8.79
2018-11-04T08:48:33.072Z,8.86
2018-11-04T08:51:01.754Z,8.93
2018-11-04T08:53:30.390Z,9.00
2018-11-04T08:55:59.142Z,9.02
2018-11-04T08:58:27.796Z,9.07
2018-11-04T09:00:56.591Z,9.12
2018-11-04T09:03:25.256Z,9.18
2018-11-04T09:05:53.863Z,9.22
2018-11-04T09:08:22.578Z,9.25
2018-11-04T09:10:51.222Z,9.29
2018-11-04T09:13:19.927Z,9.34
2018-11-04T09:15:48.896Z,9.36
2018-11-04T09:18:17.584Z,9.42
2018-11-04T09:20:46.191Z,9.47
2018-11-04T09:23:14.910Z,9.52
2018-11-04T09:25:43.513Z,9.56
2018-11-04T09:28:12.276Z,9.60
2018-11-04T09:30:41.209Z,9.63
2018-11-04T09:33:12.283Z,9.66
2018-11-04T09:35:41.319Z,9.72
2018-11-04T09:38:09.788Z,9.75
2018-11-04T09:40:38.756Z,9.82
2018-11-04T09:43:07.424Z,9.88
2018-11-04T09:45:36.071Z,9.99
2018-11-04T09:48:04.901Z,10.00
2018-11-04T09:50:33.574Z,10.07
2018-11-04T09:53:02.318Z,10.13
2018-11-04T09:55:31.177Z,10.21
2018-11-04T09:57:59.903Z,10.35
2018-11-04T10:00:29.289Z,10.43
2018-11-04T10:02:57.862Z,10.46
2018-11-04T10:05:26.457Z,10.48
2018-11-04T10:07:55.043Z,10.46
2018-11-04T10:10:23.795Z,10.50
2018-11-04T10:12:52.540Z,10.57
2018-11-04T10:15:21.834Z,10.61
2018-11-04T10:17:51.534Z,10.66
2018-11-04T10:20:20.367Z,10.75
2018-11-04T10:22:48.847Z,10.84
2018-11-04T10:25:17.808Z,10.88
2018-11-04T10:27:47.922Z,10.97
2018-11-04T10:30:17.508Z,11.02
2018-11-04T10:32:46.342Z,11.00
2018-11-04T10:35:14.989Z,11.03
2018-11-04T10:37:44.099Z,11.08
2018-11-04T10:40:13.615Z,11.14
2018-11-04T10:42:43.720Z,11.22
2018-11-04T10:45:13.520Z,11.26
2018-11-04T10:47:42.691Z,11.35
2018-11-04T10:50:12.957Z,11.35
2018-11-04T10:52:41.651Z,11.43
2018-11-04T10:55:11.204Z,11.47
2018-11-04T10:57:39.996Z,11.55
2018-11-04T11:00:15.959Z,11.61
2018-11-04T11:02:45.384Z,11.63
2018-11-04T11:05:14.582Z,11.68
2018-11-04T11:07:43.451Z,11.72
2018-11-04T11:10:12.446Z,11.79
2018-11-04T11:12:41.144Z,11.84
2018-11-04T11:15:10.863Z,11.88
2018-11-04T11:17:39.920Z,11.95
2018-11-04T11:20:10.085Z,11.94
2018-11-04T11:22:40.194Z,11.94
2018-11-04T11:25:09.690Z,12.03
2018-11-04T11:27:38.781Z,12.21
2018-11-04T11:30:07.916Z,12.23
2018-11-04T11:32:37.108Z,12.16
2018-11-04T11:35:07.048Z,12.31
2018-11-04T11:37:36.466Z,12.44
2018-11-04T11:40:05.697Z,12.48
2018-11-04T11:42:34.313Z,12.49
2018-11-04T11:45:03.713Z,12.63
2018-11-04T11:52:38.053Z,12.71
2018-11-04T11:55:07.226Z,12.89
2018-11-04T11:57:36.181Z,13.09
2018-11-04T12:00:06.539Z,13.15
2018-11-04T12:02:35.228Z,13.13
2018-11-04T12:05:04.562Z,13.13
2018-11-04T12:07:33.756Z,12.99
2018-11-04T12:10:03.635Z,13.07
2018-11-04T12:12:32.337Z,13.08
2018-11-04T12:15:03.164Z,13.04
2018-11-04T12:17:31.821Z,12.94
2018-11-04T12:20:00.586Z,12.84
2018-11-04T12:22:29.114Z,12.80
2018-11-04T12:24:57.874Z,12.84
2018-11-04T12:27:27.102Z,12.84
2018-11-04T12:29:55.752Z,12.75
2018-11-04T12:32:24.933Z,12.74
2018-11-04T12:34:54.630Z,12.78
2018-11-04T12:37:24.265Z,12.83
2018-11-04T12:39:53.187Z,12.83
2018-11-04T12:42:21.882Z,12.84
2018-11-04T12:44:50.732Z,12.90
2018-11-04T12:47:19.431Z,12.89
2018-11-04T12:49:48.117Z,12.89
2018-11-04T12:52:16.841Z,12.87
2018-11-04T12:54:45.442Z,12.86
2018-11-04T12:57:14.260Z,12.86
2018-11-04T12:59:43.039Z,12.85
2018-11-04T13:02:11.869Z,12.88
2018-11-04T13:04:40.670Z,12.89
2018-11-04T13:07:09.362Z,12.86
2018-11-04T13:09:38.091Z,12.86
2018-11-04T13:12:06.820Z,12.87
2018-11-04T13:14:35.593Z,12.82
2018-11-04T13:17:04.417Z,12.79
2018-11-04T13:19:33.163Z,12.82
2018-11-04T13:22:01.830Z,12.80
2018-11-04T13:24:30.538Z,12.81
2018-11-04T13:26:59.279Z,12.82
2018-11-04T13:29:28.664Z,12.78
2018-11-04T13:31:57.498Z,12.77
2018-11-04T13:34:26.128Z,12.78
2018-11-04T13:36:54.736Z,12.71
2018-11-04T13:39:24.067Z,12.66
2018-11-04T13:41:52.735Z,12.67
2018-11-04T13:44:21.625Z,12.67
2018-11-04T13:46:50.253Z,12.68
2018-11-04T13:49:18.964Z,12.67
2018-11-04T13:51:47.526Z,12.67
2018-11-04T13:54:16.177Z,12.67
2018-11-04T13:56:44.828Z,12.64
2018-11-04T13:59:13.604Z,12.64
2018-11-04T14:01:42.240Z,12.63
2018-11-04T14:04:10.958Z,12.62
2018-11-04T14:06:39.560Z,12.65
2018-11-04T14:09:09.094Z,12.65
2018-11-04T14:11:37.874Z,12.66
2018-11-04T14:14:06.801Z,12.68
2018-11-04T14:16:35.421Z,12.69
2018-11-04T14:19:04.417Z,12.68
2018-11-04T14:21:33.103Z,12.69
2018-11-04T14:24:01.954Z,12.67
2018-11-04T14:26:30.565Z,12.66
2018-11-04T14:28:59.096Z,12.62
2018-11-04T14:31:27.715Z,12.61
2018-11-04T14:33:56.572Z,12.60
2018-11-04T14:36:25.208Z,12.57
2018-11-04T14:38:53.901Z,12.57
2018-11-04T14:41:22.688Z,12.56
2018-11-04T14:43:51.441Z,12.55
2018-11-04T14:46:20.298Z,12.54
2018-11-04T14:48:49.111Z,12.52
2018-11-04T14:51:17.950Z,12.49
2018-11-04T14:53:46.594Z,12.49
2018-11-04T14:56:15.222Z,12.48
2018-11-04T14:58:43.940Z,12.44
2018-11-04T15:01:12.993Z,12.42
2018-11-04T15:03:41.781Z,12.34
2018-11-04T15:06:11.384Z,12.34
2018-11-04T15:08:40.118Z,12.28
2018-11-04T15:11:08.798Z,12.25
2018-11-04T15:13:37.420Z,12.29
2018-11-04T15:16:06.474Z,12.28
2018-11-04T15:18:35.159Z,12.23
2018-11-04T15:21:05.272Z,12.24
2018-11-04T15:23:34.145Z,12.24
2018-11-04T15:26:03.328Z,12.23
2018-11-04T15:28:32.088Z,12.23
2018-11-04T15:31:00.926Z,12.22
2018-11-04T15:33:29.663Z,12.23
2018-11-04T15:35:58.494Z,12.23
2018-11-04T15:38:27.387Z,12.20
2018-11-04T15:40:56.715Z,12.19
2018-11-04T15:43:25.614Z,12.17
2018-11-04T15:45:54.605Z,12.15
2018-11-04T15:48:23.688Z,12.12
2018-11-04T15:50:52.773Z,12.10
2018-11-04T15:53:21.424Z,12.07
2018-11-04T15:55:50.096Z,12.07
2018-11-04T15:58:18.672Z,12.07
2018-11-04T16:00:47.336Z,12.08
2018-11-04T16:03:16.113Z,12.07
2018-11-04T16:05:45.090Z,12.05
2018-11-04T16:08:13.943Z,12.02
2018-11-04T16:10:42.666Z,12.02
2018-11-04T16:13:11.431Z,11.99
2018-11-04T16:15:40.154Z,12.00
2018-11-04T16:18:08.812Z,12.01
2018-11-04T16:20:37.489Z,12.00
2018-11-04T16:23:06.329Z,12.00
2018-11-04T16:25:35.004Z,12.05
2018-11-04T16:28:04.610Z,12.12
2018-11-04T16:30:33.333Z,12.13
2018-11-04T16:33:02.052Z,12.11
2018-11-04T16:35:30.868Z,12.07
2018-11-04T16:37:59.611Z,12.02
2018-11-04T16:40:28.379Z,12.01
2018-11-04T16:42:57.172Z,11.98
2018-11-04T16:45:25.770Z,11.98
2018-11-04T16:47:54.744Z,11.94
2018-11-04T16:50:23.332Z,11.96
2018-11-04T16:52:52.084Z,11.98
2018-11-04T16:55:21.081Z,11.99
2018-11-04T16:57:49.916Z,11.97
2018-11-04T17:00:18.526Z,11.98
2018-11-04T17:02:47.090Z,11.98
2018-11-04T17:05:16.076Z,11.98
2018-11-04T17:07:46.128Z,11.99
2018-11-04T17:10:15.491Z,11.98
2018-11-04T17:12:44.591Z,11.92
2018-11-04T17:15:14.376Z,11.93
2018-11-04T17:17:43.202Z,11.94
2018-11-04T17:20:16.670Z,11.94
2018-11-04T17:22:46.057Z,11.92
2018-11-04T17:25:14.878Z,11.91
2018-11-04T17:27:43.960Z,11.88
2018-11-04T17:30:15.225Z,11.88
2018-11-04T17:32:45.938Z,11.85
2018-11-04T17:35:15.670Z,11.85
2018-11-04T17:37:45.020Z,11.84
2018-11-04T17:40:14.542Z,11.81
2018-11-04T17:42:43.593Z,11.80
2018-11-04T17:45:13.480Z,11.79
2018-11-04T17:47:42.205Z,11.79
2018-11-04T17:50:14.077Z,11.79
2018-11-04T17:52:43.145Z,11.81
2018-11-04T17:55:11.803Z,11.74
2018-11-04T17:57:40.602Z,11.74
2018-11-04T18:00:10.516Z,11.76
2018-11-04T18:02:39.707Z,11.76
2018-11-04T18:05:09.216Z,11.76
2018-11-04T18:07:37.951Z,11.74
2018-11-04T18:10:06.902Z,11.75
2018-11-04T18:12:36.266Z,11.75
2018-11-04T18:15:05.363Z,11.76
2018-11-04T18:17:34.278Z,11.77
2018-11-04T18:20:04.208Z,11.78
2018-11-04T18:22:32.831Z,11.77
2018-11-04T18:25:01.697Z,11.76
2018-11-04T18:27:30.410Z,11.76
2018-11-04T18:29:59.061Z,11.74
2018-11-04T18:32:28.004Z,11.72
2018-11-04T18:34:56.911Z,11.70
2018-11-04T18:37:25.624Z,11.68
2018-11-04T18:39:54.353Z,11.69
2018-11-04T18:42:23.013Z,11.67
2018-11-04T18:44:52.921Z,11.69
2018-11-04T18:47:21.677Z,11.67
2018-11-04T18:49:50.447Z,11.65
2018-11-04T18:52:19.259Z,11.66
2018-11-04T18:54:47.973Z,11.64
2018-11-04T18:57:16.757Z,11.63
2018-11-04T18:59:45.543Z,11.63
2018-11-04T19:02:14.448Z,11.61
2018-11-04T19:04:43.202Z,11.62
2018-11-04T19:07:11.894Z,11.59
2018-11-04T19:09:40.574Z,11.61
2018-11-04T19:12:09.911Z,11.60
2018-11-04T19:14:38.544Z,11.60
2018-11-04T19:17:07.296Z,11.58
2018-11-04T19:19:35.914Z,11.58
2018-11-04T19:22:04.990Z,11.58
2018-11-04T19:24:33.634Z,11.60
2018-11-04T19:27:02.820Z,11.59
2018-11-04T19:29:31.561Z,11.61
2018-11-04T19:32:00.243Z,11.59
2018-11-04T19:34:29.034Z,11.57
2018-11-04T19:36:57.756Z,11.57
2018-11-04T19:39:26.410Z,11.53
2018-11-04T19:41:55.052Z,11.48
2018-11-04T19:44:23.625Z,11.53
2018-11-04T19:46:52.389Z,11.52
2018-11-04T19:49:21.073Z,11.54
2018-11-04T19:51:49.699Z,11.56
2018-11-04T19:54:18.433Z,11.52
2018-11-04T19:56:47.133Z,11.50
2018-11-04T19:59:16.044Z,11.51
2018-11-04T20:01:44.895Z,11.51
2018-11-04T20:04:13.910Z,11.53
2018-11-04T20:06:42.648Z,11.53
2018-11-04T20:09:14.251Z,11.56
2018-11-04T20:11:43.582Z,11.54
2018-11-04T20:14:16.142Z,11.52
2018-11-04T20:16:47.122Z,11.50
2018-11-04T20:19:20.901Z,11.49
2018-11-04T20:21:49.734Z,11.51
2018-11-04T20:24:23.477Z,11.52
2018-11-04T20:26:52.302Z,11.51
2018-11-04T20:29:21.312Z,11.50
2018-11-04T20:31:55.124Z,11.52
2018-11-04T20:34:24.010Z,11.53
2018-11-04T20:36:52.833Z,11.55
2018-11-04T20:39:26.967Z,11.55
2018-11-04T20:41:56.016Z,11.52
2018-11-04T20:44:25.090Z,11.50
2018-11-04T20:46:53.825Z,11.49
2018-11-04T20:49:27.643Z,11.52
2018-11-04T20:51:56.511Z,11.51
2018-11-04T20:54:25.219Z,11.42
2018-11-04T20:56:59.125Z,11.44
2018-11-04T20:59:27.752Z,11.48
2018-11-04T21:01:56.344Z,11.51
2018-11-04T21:04:25.017Z,11.49
2018-11-04T21:06:53.688Z,11.50
2018-11-04T21:09:22.298Z,11.51
2018-11-04T21:11:50.899Z,11.52
2018-11-04T21:14:19.574Z,11.48
2018-11-04T21:16:48.457Z,11.49
2018-11-04T21:19:16.945Z,11.48
2018-11-04T21:21:45.614Z,11.46
2018-11-04T21:24:14.282Z,11.43
2018-11-04T21:26:43.061Z,11.45
2018-11-04T21:29:11.999Z,11.45
2018-11-04T21:31:40.472Z,11.44
2018-11-04T21:34:09.319Z,11.46
2018-11-04T21:36:38.022Z,11.48
2018-11-04T21:39:09.205Z,11.48
2018-11-04T21:41:37.856Z,11.49
2018-11-04T21:44:06.670Z,11.42
2018-11-04T21:46:35.270Z,11.41
2018-11-04T21:49:03.869Z,11.44
2018-11-04T21:51:32.866Z,11.46
2018-11-04T21:54:01.683Z,11.47
2018-11-04T21:56:31.387Z,11.45
2018-11-04T21:58:59.961Z,11.47
2018-11-04T22:01:28.726Z,11.48
2018-11-04T22:03:57.694Z,11.53
2018-11-04T22:06:26.152Z,11.44
2018-11-04T22:08:54.747Z,11.43
2018-11-04T22:11:23.421Z,11.43
2018-11-04T22:13:52.202Z,11.46
2018-11-04T22:16:20.753Z,11.47
2018-11-04T22:18:49.470Z,11.46
2018-11-04T22:21:18.497Z,11.44
2018-11-04T22:23:47.193Z,11.42
2018-11-04T22:26:15.878Z,11.44
2018-11-04T22:28:44.477Z,11.47
2018-11-04T22:31:13.065Z,11.52
2018-11-04T22:33:41.587Z,11.53
2018-11-04T22:36:10.513Z,11.51
2018-11-04T22:38:39.294Z,11.46
2018-11-04T22:41:07.954Z,11.47
2018-11-04T22:43:36.849Z,11.44
2018-11-04T22:46:06.024Z,11.43
2018-11-04T22:48:34.812Z,11.43
2018-11-04T22:51:03.610Z,11.44
2018-11-04T22:53:32.893Z,11.45
2018-11-04T22:56:03.467Z,11.45
2018-11-04T22:58:32.145Z,11.49
2018-11-04T23:01:02.191Z,11.45
2018-11-04T23:03:30.907Z,11.46
2018-11-04T23:06:05.034Z,11.48
2018-11-04T23:08:33.962Z,11.52
2018-11-04T23:11:03.334Z,11.48
2018-11-04T23:13:32.358Z,11.48
2018-11-04T23:16:02.602Z,11.48
2018-11-04T23:18:31.400Z,11.50
2018-11-04T23:21:00.108Z,11.53
2018-11-04T23:23:28.862Z,11.51
2018-11-04T23:25:57.548Z,11.52
2018-11-04T23:28:26.211Z,11.53
2018-11-04T23:30:54.881Z,11.49
2018-11-04T23:33:23.451Z,11.45
2018-11-04T23:35:52.122Z,11.49
2018-11-04T23:38:20.789Z,11.49
2018-11-04T23:40:49.518Z,11.53
2018-11-04T23:43:18.157Z,11.53
2018-11-04T23:45:46.811Z,11.53
2018-11-04T23:48:15.412Z,11.51
2018-11-04T23:50:44.170Z,11.50
2018-11-04T23:53:13.323Z,11.45
2018-11-04T23:55:42.350Z,11.47
2018-11-04T23:58:11.770Z,11.48
